sensor_id;sensor_type;location;lat;lon;timestamp;P1;durP1;ratioP1;P2;durP2;ratioP2
75165;SDS011;63747;48.042;10.088;2022-12-05T00:01:19;23.50;;;13.57;;
75165;SDS011;63747;48.042;10.088;2022-12-05T00:04:20;20.15;;;12.98;;
75165;SDS011;63747;48.042;10.088;2022-12-05T00:07:21;20.83;;;13.75;;
75165;SDS011;63747;48.042;10.088;2022-12-05T00:10:22;19.50;;;13.67;;
75165;SDS011;63747;48.042;10.088;2022-12-05T00:13:23;22.20;;;14.43;;
75165;SDS011;63747;48.042;10.088;2022-12-05T00:16:25;20.97;;;13.80;;
75165;SDS011;63747;48.042;10.088;2022-12-05T00:19:28;21.90;;;14.25;;
75165;SDS011;63747;48.042;10.088;2022-12-05T00:22:28;20.17;;;13.47;;
75165;SDS011;63747;48.042;10.088;2022-12-05T00:25:29;21.70;;;13.73;;
75165;SDS011;63747;48.042;10.088;2022-12-05T00:28:33;21.43;;;14.30;;
75165;SDS011;63747;48.042;10.088;2022-12-05T00:31:34;22.13;;;14.48;;
75165;SDS011;63747;48.042;10.088;2022-12-05T00:34:35;21.30;;;14.73;;
75165;SDS011;63747;48.042;10.088;2022-12-05T00:37:36;22.70;;;14.18;;
75165;SDS011;63747;48.042;10.088;2022-12-05T00:40:37;25.97;;;14.60;;
75165;SDS011;63747;48.042;10.088;2022-12-05T00:43:38;20.70;;;14.30;;
75165;SDS011;63747;48.042;10.088;2022-12-05T00:46:39;22.92;;;13.77;;
75165;SDS011;63747;48.042;10.088;2022-12-05T00:49:40;21.20;;;14.80;;
75165;SDS011;63747;48.042;10.088;2022-12-05T00:52:41;22.53;;;14.83;;
75165;SDS011;63747;48.042;10.088;2022-12-05T00:55:41;21.30;;;14.20;;
75165;SDS011;63747;48.042;10.088;2022-12-05T00:58:42;23.20;;;15.13;;
75165;SDS011;63747;48.042;10.088;2022-12-05T01:01:44;23.33;;;14.43;;
75165;SDS011;63747;48.042;10.088;2022-12-05T01:04:46;23.85;;;14.18;;
75165;SDS011;63747;48.042;10.088;2022-12-05T01:07:47;26.30;;;15.27;;
75165;SDS011;63747;48.042;10.088;2022-12-05T01:10:51;24.93;;;15.50;;
75165;SDS011;63747;48.042;10.088;2022-12-05T01:13:56;25.85;;;15.07;;
75165;SDS011;63747;48.042;10.088;2022-12-05T01:16:57;24.00;;;14.73;;
75165;SDS011;63747;48.042;10.088;2022-12-05T01:19:57;28.70;;;18.17;;
75165;SDS011;63747;48.042;10.088;2022-12-05T01:22:58;25.00;;;14.87;;
75165;SDS011;63747;48.042;10.088;2022-12-05T01:25:59;24.73;;;15.13;;
75165;SDS011;63747;48.042;10.088;2022-12-05T01:29:04;23.60;;;14.98;;
75165;SDS011;63747;48.042;10.088;2022-12-05T01:32:05;25.87;;;15.63;;
75165;SDS011;63747;48.042;10.088;2022-12-05T01:35:06;22.73;;;15.17;;
75165;SDS011;63747;48.042;10.088;2022-12-05T01:38:08;22.50;;;14.43;;
75165;SDS011;63747;48.042;10.088;2022-12-05T01:41:12;21.00;;;13.52;;
75165;SDS011;63747;48.042;10.088;2022-12-05T01:47:16;22.33;;;14.13;;
75165;SDS011;63747;48.042;10.088;2022-12-05T01:53:19;21.48;;;13.25;;
75165;SDS011;63747;48.042;10.088;2022-12-05T01:56:20;20.05;;;13.65;;
75165;SDS011;63747;48.042;10.088;2022-12-05T01:59:21;20.57;;;13.40;;
75165;SDS011;63747;48.042;10.088;2022-12-05T02:02:23;20.08;;;12.65;;
75165;SDS011;63747;48.042;10.088;2022-12-05T02:05:26;25.23;;;15.15;;
75165;SDS011;63747;48.042;10.088;2022-12-05T02:08:28;22.30;;;13.77;;
75165;SDS011;63747;48.042;10.088;2022-12-05T02:11:30;22.30;;;14.30;;
75165;SDS011;63747;48.042;10.088;2022-12-05T02:14:37;19.55;;;14.07;;
75165;SDS011;63747;48.042;10.088;2022-12-05T02:37:26;23.38;;;15.68;;
75165;SDS011;63747;48.042;10.088;2022-12-05T02:47:05;22.30;;;14.25;;
75165;SDS011;63747;48.042;10.088;2022-12-05T02:50:08;19.67;;;14.35;;
75165;SDS011;63747;48.042;10.088;2022-12-05T02:53:14;25.33;;;16.00;;
75165;SDS011;63747;48.042;10.088;2022-12-05T02:56:17;30.88;;;17.98;;
75165;SDS011;63747;48.042;10.088;2022-12-05T02:59:19;29.52;;;17.55;;
75165;SDS011;63747;48.042;10.088;2022-12-05T03:02:27;27.03;;;17.57;;
75165;SDS011;63747;48.042;10.088;2022-12-05T03:05:37;29.92;;;18.05;;
75165;SDS011;63747;48.042;10.088;2022-12-05T03:12:10;25.58;;;16.50;;
75165;SDS011;63747;48.042;10.088;2022-12-05T03:15:19;22.58;;;14.73;;
75165;SDS011;63747;48.042;10.088;2022-12-05T03:18:26;22.67;;;13.88;;
75165;SDS011;63747;48.042;10.088;2022-12-05T03:24:35;19.48;;;13.77;;
75165;SDS011;63747;48.042;10.088;2022-12-05T03:27:46;18.23;;;12.45;;
75165;SDS011;63747;48.042;10.088;2022-12-05T03:30:53;17.10;;;12.45;;
75165;SDS011;63747;48.042;10.088;2022-12-05T03:33:57;16.55;;;12.40;;
75165;SDS011;63747;48.042;10.088;2022-12-05T03:37:01;18.58;;;12.35;;
75165;SDS011;63747;48.042;10.088;2022-12-05T03:40:16;15.50;;;11.30;;
75165;SDS011;63747;48.042;10.088;2022-12-05T03:49:42;16.73;;;12.10;;
75165;SDS011;63747;48.042;10.088;2022-12-05T03:52:53;17.42;;;12.02;;
75165;SDS011;63747;48.042;10.088;2022-12-05T03:56:04;16.83;;;12.07;;
75165;SDS011;63747;48.042;10.088;2022-12-05T04:02:34;16.90;;;12.57;;
75165;SDS011;63747;48.042;10.088;2022-12-05T04:08:59;14.80;;;11.05;;
75165;SDS011;63747;48.042;10.088;2022-12-05T04:12:16;15.10;;;11.00;;
75165;SDS011;63747;48.042;10.088;2022-12-05T04:15:23;13.80;;;10.13;;
75165;SDS011;63747;48.042;10.088;2022-12-05T04:18:53;12.45;;;10.23;;
75165;SDS011;63747;48.042;10.088;2022-12-05T04:25:01;14.95;;;10.60;;
75165;SDS011;63747;48.042;10.088;2022-12-05T04:28:28;13.60;;;10.68;;
75165;SDS011;63747;48.042;10.088;2022-12-05T04:31:36;14.00;;;10.75;;
75165;SDS011;63747;48.042;10.088;2022-12-05T04:34:43;16.60;;;11.98;;
75165;SDS011;63747;48.042;10.088;2022-12-05T04:37:52;14.90;;;11.25;;
75165;SDS011;63747;48.042;10.088;2022-12-05T04:41:02;16.70;;;12.05;;
75165;SDS011;63747;48.042;10.088;2022-12-05T04:44:06;19.15;;;12.98;;
75165;SDS011;63747;48.042;10.088;2022-12-05T04:47:09;16.77;;;12.82;;
75165;SDS011;63747;48.042;10.088;2022-12-05T04:50:13;15.50;;;11.93;;
75165;SDS011;63747;48.042;10.088;2022-12-05T04:53:17;17.77;;;12.80;;
75165;SDS011;63747;48.042;10.088;2022-12-05T04:56:19;18.60;;;12.63;;
75165;SDS011;63747;48.042;10.088;2022-12-05T04:59:24;17.65;;;12.65;;
75165;SDS011;63747;48.042;10.088;2022-12-05T05:02:27;18.07;;;13.63;;
75165;SDS011;63747;48.042;10.088;2022-12-05T05:05:34;17.98;;;12.85;;
75165;SDS011;63747;48.042;10.088;2022-12-05T05:08:44;15.98;;;12.55;;
75165;SDS011;63747;48.042;10.088;2022-12-05T05:11:49;19.25;;;13.65;;
75165;SDS011;63747;48.042;10.088;2022-12-05T05:14:50;22.43;;;16.60;;
75165;SDS011;63747;48.042;10.088;2022-12-05T05:17:51;22.00;;;15.87;;
75165;SDS011;63747;48.042;10.088;2022-12-05T05:20:51;23.07;;;15.17;;
75165;SDS011;63747;48.042;10.088;2022-12-05T05:23:52;19.27;;;13.77;;
75165;SDS011;63747;48.042;10.088;2022-12-05T05:26:54;19.45;;;12.77;;
75165;SDS011;63747;48.042;10.088;2022-12-05T05:29:54;22.27;;;14.40;;
75165;SDS011;63747;48.042;10.088;2022-12-05T05:32:55;18.87;;;14.63;;
75165;SDS011;63747;48.042;10.088;2022-12-05T05:36:03;21.48;;;15.98;;
75165;SDS011;63747;48.042;10.088;2022-12-05T05:39:12;25.83;;;17.90;;
75165;SDS011;63747;48.042;10.088;2022-12-05T05:42:14;22.35;;;15.63;;
75165;SDS011;63747;48.042;10.088;2022-12-05T05:45:15;19.67;;;14.27;;
75165;SDS011;63747;48.042;10.088;2022-12-05T05:48:16;19.98;;;14.32;;
75165;SDS011;63747;48.042;10.088;2022-12-05T05:51:17;18.33;;;13.33;;
75165;SDS011;63747;48.042;10.088;2022-12-05T05:54:19;17.38;;;12.18;;
75165;SDS011;63747;48.042;10.088;2022-12-05T05:57:20;17.93;;;13.20;;
75165;SDS011;63747;48.042;10.088;2022-12-05T06:00:21;16.77;;;11.90;;
75165;SDS011;63747;48.042;10.088;2022-12-05T06:03:22;16.40;;;12.17;;
75165;SDS011;63747;48.042;10.088;2022-12-05T06:06:22;16.73;;;12.33;;
75165;SDS011;63747;48.042;10.088;2022-12-05T06:09:23;18.77;;;13.80;;
75165;SDS011;63747;48.042;10.088;2022-12-05T06:12:24;19.60;;;13.90;;
75165;SDS011;63747;48.042;10.088;2022-12-05T06:15:25;19.13;;;13.40;;
75165;SDS011;63747;48.042;10.088;2022-12-05T06:18:26;15.70;;;12.30;;
75165;SDS011;63747;48.042;10.088;2022-12-05T06:21:27;17.63;;;12.13;;
75165;SDS011;63747;48.042;10.088;2022-12-05T06:24:27;17.70;;;12.63;;
75165;SDS011;63747;48.042;10.088;2022-12-05T06:27:28;18.87;;;13.50;;
75165;SDS011;63747;48.042;10.088;2022-12-05T06:30:30;16.55;;;13.13;;
75165;SDS011;63747;48.042;10.088;2022-12-05T06:33:31;15.97;;;11.77;;
75165;SDS011;63747;48.042;10.088;2022-12-05T06:36:32;13.93;;;11.53;;
75165;SDS011;63747;48.042;10.088;2022-12-05T06:39:33;16.27;;;11.80;;
75165;SDS011;63747;48.042;10.088;2022-12-05T06:42:33;16.87;;;11.73;;
75165;SDS011;63747;48.042;10.088;2022-12-05T06:45:36;15.80;;;11.90;;
75165;SDS011;63747;48.042;10.088;2022-12-05T06:48:37;16.85;;;12.57;;
75165;SDS011;63747;48.042;10.088;2022-12-05T06:51:38;15.52;;;11.75;;
75165;SDS011;63747;48.042;10.088;2022-12-05T06:54:39;17.90;;;12.23;;
75165;SDS011;63747;48.042;10.088;2022-12-05T06:57:39;18.47;;;12.63;;
75165;SDS011;63747;48.042;10.088;2022-12-05T07:00:40;20.07;;;14.10;;
75165;SDS011;63747;48.042;10.088;2022-12-05T07:04:00;16.90;;;13.75;;
75165;SDS011;63747;48.042;10.088;2022-12-05T07:07:01;19.83;;;14.25;;
75165;SDS011;63747;48.042;10.088;2022-12-05T07:10:03;16.37;;;12.73;;
75165;SDS011;63747;48.042;10.088;2022-12-05T07:13:05;15.73;;;11.27;;
75165;SDS011;63747;48.042;10.088;2022-12-05T07:16:06;16.10;;;11.33;;
75165;SDS011;63747;48.042;10.088;2022-12-05T07:19:08;14.48;;;10.63;;
75165;SDS011;63747;48.042;10.088;2022-12-05T07:22:09;15.35;;;11.20;;
75165;SDS011;63747;48.042;10.088;2022-12-05T07:25:10;14.67;;;10.87;;
75165;SDS011;63747;48.042;10.088;2022-12-05T07:28:11;14.97;;;10.50;;
75165;SDS011;63747;48.042;10.088;2022-12-05T07:31:13;14.47;;;10.70;;
75165;SDS011;63747;48.042;10.088;2022-12-05T07:34:16;14.75;;;10.10;;
75165;SDS011;63747;48.042;10.088;2022-12-05T07:37:17;14.87;;;10.27;;
75165;SDS011;63747;48.042;10.088;2022-12-05T07:40:17;14.83;;;11.33;;
75165;SDS011;63747;48.042;10.088;2022-12-05T07:43:18;15.67;;;10.60;;
75165;SDS011;63747;48.042;10.088;2022-12-05T07:46:19;16.13;;;10.38;;
75165;SDS011;63747;48.042;10.088;2022-12-05T07:49:21;12.35;;;9.02;;
75165;SDS011;63747;48.042;10.088;2022-12-05T07:52:21;14.63;;;10.10;;
75165;SDS011;63747;48.042;10.088;2022-12-05T07:55:22;12.30;;;8.83;;
75165;SDS011;63747;48.042;10.088;2022-12-05T07:58:23;15.80;;;9.00;;
75165;SDS011;63747;48.042;10.088;2022-12-05T08:01:24;12.33;;;9.07;;
75165;SDS011;63747;48.042;10.088;2022-12-05T08:04:28;11.57;;;8.73;;
75165;SDS011;63747;48.042;10.088;2022-12-05T08:07:29;11.17;;;8.07;;
75165;SDS011;63747;48.042;10.088;2022-12-05T08:10:30;10.00;;;7.80;;
75165;SDS011;63747;48.042;10.088;2022-12-05T08:13:31;10.20;;;8.20;;
75165;SDS011;63747;48.042;10.088;2022-12-05T08:16:32;11.05;;;7.80;;
75165;SDS011;63747;48.042;10.088;2022-12-05T08:19:33;8.85;;;7.10;;
75165;SDS011;63747;48.042;10.088;2022-12-05T08:22:34;10.73;;;6.87;;
75165;SDS011;63747;48.042;10.088;2022-12-05T08:25:34;9.00;;;6.93;;
75165;SDS011;63747;48.042;10.088;2022-12-05T08:28:35;11.20;;;8.10;;
75165;SDS011;63747;48.042;10.088;2022-12-05T08:31:40;15.63;;;7.30;;
75165;SDS011;63747;48.042;10.088;2022-12-05T08:34:43;10.05;;;7.55;;
75165;SDS011;63747;48.042;10.088;2022-12-05T08:37:44;10.97;;;7.60;;
75165;SDS011;63747;48.042;10.088;2022-12-05T08:40:45;15.67;;;9.53;;
75165;SDS011;63747;48.042;10.088;2022-12-05T08:43:46;15.77;;;8.90;;
75165;SDS011;63747;48.042;10.088;2022-12-05T08:46:48;12.40;;;8.00;;
75165;SDS011;63747;48.042;10.088;2022-12-05T08:49:49;14.35;;;8.50;;
75165;SDS011;63747;48.042;10.088;2022-12-05T08:52:50;15.67;;;8.67;;
75165;SDS011;63747;48.042;10.088;2022-12-05T08:55:50;57.63;;;32.67;;
75165;SDS011;63747;48.042;10.088;2022-12-05T08:58:51;26.40;;;19.07;;
75165;SDS011;63747;48.042;10.088;2022-12-05T09:01:52;21.50;;;13.83;;
75165;SDS011;63747;48.042;10.088;2022-12-05T09:04:53;17.33;;;11.37;;
75165;SDS011;63747;48.042;10.088;2022-12-05T09:07:53;9.07;;;6.70;;
75165;SDS011;63747;48.042;10.088;2022-12-05T09:10:54;8.37;;;6.70;;
75165;SDS011;63747;48.042;10.088;2022-12-05T09:13:56;9.83;;;6.53;;
75165;SDS011;63747;48.042;10.088;2022-12-05T09:16:58;9.02;;;6.70;;
75165;SDS011;63747;48.042;10.088;2022-12-05T09:19:59;7.88;;;6.03;;
75165;SDS011;63747;48.042;10.088;2022-12-05T09:23:00;8.70;;;4.93;;
75165;SDS011;63747;48.042;10.088;2022-12-05T09:26:02;8.30;;;5.97;;
75165;SDS011;63747;48.042;10.088;2022-12-05T09:29:04;10.02;;;6.25;;
75165;SDS011;63747;48.042;10.088;2022-12-05T09:32:05;7.27;;;5.10;;
75165;SDS011;63747;48.042;10.088;2022-12-05T09:35:06;8.98;;;4.45;;
75165;SDS011;63747;48.042;10.088;2022-12-05T09:38:07;6.60;;;4.90;;
75165;SDS011;63747;48.042;10.088;2022-12-05T09:41:31;22.07;;;16.13;;
75165;SDS011;63747;48.042;10.088;2022-12-05T09:48:14;22.98;;;17.15;;
75165;SDS011;63747;48.042;10.088;2022-12-05T09:51:18;9.48;;;6.20;;
75165;SDS011;63747;48.042;10.088;2022-12-05T09:54:20;24.23;;;7.47;;
75165;SDS011;63747;48.042;10.088;2022-12-05T09:57:25;43.90;;;7.95;;
75165;SDS011;63747;48.042;10.088;2022-12-05T10:00:32;11.03;;;4.87;;
75165;SDS011;63747;48.042;10.088;2022-12-05T10:03:38;20.50;;;10.80;;
75165;SDS011;63747;48.042;10.088;2022-12-05T10:07:26;14.20;;;5.18;;
75165;SDS011;63747;48.042;10.088;2022-12-05T10:16:56;6.82;;;4.47;;
75165;SDS011;63747;48.042;10.088;2022-12-05T10:20:04;6.57;;;5.03;;
75165;SDS011;63747;48.042;10.088;2022-12-05T10:23:16;11.13;;;6.93;;
75165;SDS011;63747;48.042;10.088;2022-12-05T10:26:21;6.50;;;4.30;;
75165;SDS011;63747;48.042;10.088;2022-12-05T10:32:36;7.75;;;3.40;;
75165;SDS011;63747;48.042;10.088;2022-12-05T10:35:43;5.95;;;4.20;;
75165;SDS011;63747;48.042;10.088;2022-12-05T10:38:44;6.27;;;4.43;;
75165;SDS011;63747;48.042;10.088;2022-12-05T10:41:45;5.00;;;4.03;;
75165;SDS011;63747;48.042;10.088;2022-12-05T10:44:45;4.90;;;3.40;;
75165;SDS011;63747;48.042;10.088;2022-12-05T10:47:48;7.13;;;3.55;;
75165;SDS011;63747;48.042;10.088;2022-12-05T10:50:53;6.07;;;3.28;;
75165;SDS011;63747;48.042;10.088;2022-12-05T10:53:55;6.45;;;3.10;;
75165;SDS011;63747;48.042;10.088;2022-12-05T10:56:56;5.43;;;3.60;;
75165;SDS011;63747;48.042;10.088;2022-12-05T11:00:08;3.58;;;3.00;;
75165;SDS011;63747;48.042;10.088;2022-12-05T11:03:30;3.70;;;2.63;;
75165;SDS011;63747;48.042;10.088;2022-12-05T11:06:33;3.92;;;3.10;;
75165;SDS011;63747;48.042;10.088;2022-12-05T11:12:39;5.65;;;3.60;;
75165;SDS011;63747;48.042;10.088;2022-12-05T11:15:44;4.28;;;3.35;;
75165;SDS011;63747;48.042;10.088;2022-12-05T11:18:46;4.97;;;3.00;;
75165;SDS011;63747;48.042;10.088;2022-12-05T11:21:48;4.32;;;3.45;;
75165;SDS011;63747;48.042;10.088;2022-12-05T11:24:49;4.32;;;3.47;;
75165;SDS011;63747;48.042;10.088;2022-12-05T11:27:50;10.67;;;6.47;;
75165;SDS011;63747;48.042;10.088;2022-12-05T11:31:34;4.90;;;3.72;;
75165;SDS011;63747;48.042;10.088;2022-12-05T11:34:16;6.45;;;1.90;;
75165;SDS011;63747;48.042;10.088;2022-12-05T11:37:23;3.65;;;2.17;;
75165;SDS011;63747;48.042;10.088;2022-12-05T11:53:38;1.52;;;1.33;;
75165;SDS011;63747;48.042;10.088;2022-12-05T11:56:52;1.50;;;1.10;;
75165;SDS011;63747;48.042;10.088;2022-12-05T12:03:41;4.70;;;4.30;;
75165;SDS011;63747;48.042;10.088;2022-12-05T12:17:53;0.73;;;0.73;;
75165;SDS011;63747;48.042;10.088;2022-12-05T12:34:42;0.70;;;0.70;;
75165;SDS011;63747;48.042;10.088;2022-12-05T12:41:51;1.58;;;1.00;;
75165;SDS011;63747;48.042;10.088;2022-12-05T12:45:01;1.40;;;0.95;;
75165;SDS011;63747;48.042;10.088;2022-12-05T12:51:19;1.50;;;1.33;;
75165;SDS011;63747;48.042;10.088;2022-12-05T12:54:26;1.43;;;1.10;;
75165;SDS011;63747;48.042;10.088;2022-12-05T12:57:49;2.28;;;1.05;;
75165;SDS011;63747;48.042;10.088;2022-12-05T13:04:47;2.15;;;1.27;;
75165;SDS011;63747;48.042;10.088;2022-12-05T13:07:53;1.80;;;1.40;;
75165;SDS011;63747;48.042;10.088;2022-12-05T13:10:59;2.05;;;1.48;;
75165;SDS011;63747;48.042;10.088;2022-12-05T13:14:08;1.40;;;1.10;;
75165;SDS011;63747;48.042;10.088;2022-12-05T13:17:14;2.83;;;1.20;;
75165;SDS011;63747;48.042;10.088;2022-12-05T13:20:19;4.32;;;1.20;;
75165;SDS011;63747;48.042;10.088;2022-12-05T13:23:23;1.92;;;1.30;;
75165;SDS011;63747;48.042;10.088;2022-12-05T13:26:26;1.55;;;0.93;;
75165;SDS011;63747;48.042;10.088;2022-12-05T13:32:31;1.15;;;0.90;;
75165;SDS011;63747;48.042;10.088;2022-12-05T13:35:35;1.17;;;0.95;;
75165;SDS011;63747;48.042;10.088;2022-12-05T13:38:58;1.70;;;1.35;;
75165;SDS011;63747;48.042;10.088;2022-12-05T13:42:20;1.35;;;1.10;;
75165;SDS011;63747;48.042;10.088;2022-12-05T13:45:25;1.35;;;1.10;;
75165;SDS011;63747;48.042;10.088;2022-12-05T13:48:26;1.50;;;1.20;;
75165;SDS011;63747;48.042;10.088;2022-12-05T13:51:34;2.92;;;1.70;;
75165;SDS011;63747;48.042;10.088;2022-12-05T13:54:44;1.00;;;0.82;;
75165;SDS011;63747;48.042;10.088;2022-12-05T13:57:53;0.90;;;0.60;;
75165;SDS011;63747;48.042;10.088;2022-12-05T14:04:46;1.17;;;0.77;;
75165;SDS011;63747;48.042;10.088;2022-12-05T14:07:51;1.63;;;1.15;;
75165;SDS011;63747;48.042;10.088;2022-12-05T14:13:56;1.20;;;0.90;;
75165;SDS011;63747;48.042;10.088;2022-12-05T14:16:57;2.50;;;1.80;;
75165;SDS011;63747;48.042;10.088;2022-12-05T14:23:28;1.48;;;1.00;;
75165;SDS011;63747;48.042;10.088;2022-12-05T14:26:54;1.52;;;1.10;;
75165;SDS011;63747;48.042;10.088;2022-12-05T14:30:20;2.10;;;1.08;;
75165;SDS011;63747;48.042;10.088;2022-12-05T14:33:32;1.67;;;1.10;;
75165;SDS011;63747;48.042;10.088;2022-12-05T14:36:33;1.30;;;1.10;;
75165;SDS011;63747;48.042;10.088;2022-12-05T14:39:35;2.83;;;1.47;;
75165;SDS011;63747;48.042;10.088;2022-12-05T14:45:43;2.22;;;1.90;;
75165;SDS011;63747;48.042;10.088;2022-12-05T14:48:52;0.88;;;0.80;;
75165;SDS011;63747;48.042;10.088;2022-12-05T14:51:56;1.90;;;1.20;;
75165;SDS011;63747;48.042;10.088;2022-12-05T14:54:59;2.40;;;1.88;;
75165;SDS011;63747;48.042;10.088;2022-12-05T14:58:03;3.45;;;3.15;;
75165;SDS011;63747;48.042;10.088;2022-12-05T15:01:06;2.20;;;1.90;;
75165;SDS011;63747;48.042;10.088;2022-12-05T15:04:16;3.20;;;1.60;;
75165;SDS011;63747;48.042;10.088;2022-12-05T15:07:26;1.95;;;1.40;;
75165;SDS011;63747;48.042;10.088;2022-12-05T15:10:32;8.27;;;1.65;;
75165;SDS011;63747;48.042;10.088;2022-12-05T15:13:37;4.32;;;2.10;;
75165;SDS011;63747;48.042;10.088;2022-12-05T15:16:39;3.38;;;2.55;;
75165;SDS011;63747;48.042;10.088;2022-12-05T15:19:46;5.15;;;2.10;;
75165;SDS011;63747;48.042;10.088;2022-12-05T15:22:53;4.05;;;3.10;;
75165;SDS011;63747;48.042;10.088;2022-12-05T15:25:54;5.10;;;3.73;;
75165;SDS011;63747;48.042;10.088;2022-12-05T15:32:02;6.75;;;2.90;;
75165;SDS011;63747;48.042;10.088;2022-12-05T15:35:15;6.45;;;3.65;;
75165;SDS011;63747;48.042;10.088;2022-12-05T15:38:23;5.50;;;3.28;;
75165;SDS011;63747;48.042;10.088;2022-12-05T15:41:28;6.28;;;3.88;;
75165;SDS011;63747;48.042;10.088;2022-12-05T15:44:29;4.50;;;3.60;;
75165;SDS011;63747;48.042;10.088;2022-12-05T15:47:30;23.27;;;20.83;;
75165;SDS011;63747;48.042;10.088;2022-12-05T15:50:46;7.53;;;6.17;;
75165;SDS011;63747;48.042;10.088;2022-12-05T15:53:51;7.50;;;5.53;;
75165;SDS011;63747;48.042;10.088;2022-12-05T15:57:15;16.05;;;10.00;;
75165;SDS011;63747;48.042;10.088;2022-12-05T16:00:23;11.18;;;7.32;;
75165;SDS011;63747;48.042;10.088;2022-12-05T16:06:42;6.18;;;4.10;;
75165;SDS011;63747;48.042;10.088;2022-12-05T16:09:44;6.07;;;4.30;;
75165;SDS011;63747;48.042;10.088;2022-12-05T16:12:46;5.75;;;3.50;;
75165;SDS011;63747;48.042;10.088;2022-12-05T16:15:49;6.40;;;4.90;;
75165;SDS011;63747;48.042;10.088;2022-12-05T16:18:54;6.13;;;4.70;;
75165;SDS011;63747;48.042;10.088;2022-12-05T16:22:07;7.55;;;6.15;;
75165;SDS011;63747;48.042;10.088;2022-12-05T16:25:15;7.53;;;5.80;;
75165;SDS011;63747;48.042;10.088;2022-12-05T16:28:18;7.30;;;5.93;;
75165;SDS011;63747;48.042;10.088;2022-12-05T16:31:21;6.05;;;5.03;;
75165;SDS011;63747;48.042;10.088;2022-12-05T16:34:22;6.77;;;5.10;;
75165;SDS011;63747;48.042;10.088;2022-12-05T16:37:25;5.05;;;4.38;;
75165;SDS011;63747;48.042;10.088;2022-12-05T16:40:27;7.00;;;5.03;;
75165;SDS011;63747;48.042;10.088;2022-12-05T16:49:38;40.30;;;21.15;;
75165;SDS011;63747;48.042;10.088;2022-12-05T16:52:42;33.65;;;18.85;;
75165;SDS011;63747;48.042;10.088;2022-12-05T16:55:43;13.63;;;8.30;;
75165;SDS011;63747;48.042;10.088;2022-12-05T16:58:44;6.97;;;4.13;;
75165;SDS011;63747;48.042;10.088;2022-12-05T17:01:46;6.68;;;4.18;;
75165;SDS011;63747;48.042;10.088;2022-12-05T17:04:47;5.07;;;3.67;;
75165;SDS011;63747;48.042;10.088;2022-12-05T17:07:49;5.50;;;4.30;;
75165;SDS011;63747;48.042;10.088;2022-12-05T17:13:52;3.50;;;3.00;;
75165;SDS011;63747;48.042;10.088;2022-12-05T17:16:55;4.32;;;2.45;;
75165;SDS011;63747;48.042;10.088;2022-12-05T17:19:55;3.63;;;2.60;;
75165;SDS011;63747;48.042;10.088;2022-12-05T17:22:56;3.07;;;2.33;;
75165;SDS011;63747;48.042;10.088;2022-12-05T17:25:57;3.00;;;2.70;;
75165;SDS011;63747;48.042;10.088;2022-12-05T17:28:58;5.53;;;2.70;;
75165;SDS011;63747;48.042;10.088;2022-12-05T17:31:59;5.37;;;4.30;;
75165;SDS011;63747;48.042;10.088;2022-12-05T17:35:00;5.93;;;4.53;;
75165;SDS011;63747;48.042;10.088;2022-12-05T17:38:01;7.10;;;5.03;;
75165;SDS011;63747;48.042;10.088;2022-12-05T17:44:04;7.75;;;4.97;;
75165;SDS011;63747;48.042;10.088;2022-12-05T17:47:05;4.72;;;3.97;;
75165;SDS011;63747;48.042;10.088;2022-12-05T17:50:11;5.25;;;3.80;;
75165;SDS011;63747;48.042;10.088;2022-12-05T17:53:18;4.18;;;3.45;;
75165;SDS011;63747;48.042;10.088;2022-12-05T17:56:20;5.00;;;4.30;;
75165;SDS011;63747;48.042;10.088;2022-12-05T17:59:21;6.90;;;6.20;;
75165;SDS011;63747;48.042;10.088;2022-12-05T18:02:21;7.43;;;4.97;;
75165;SDS011;63747;48.042;10.088;2022-12-05T18:05:22;7.83;;;5.03;;
75165;SDS011;63747;48.042;10.088;2022-12-05T18:08:23;7.73;;;5.37;;
75165;SDS011;63747;48.042;10.088;2022-12-05T18:11:24;10.65;;;8.75;;
75165;SDS011;63747;48.042;10.088;2022-12-05T18:14:25;10.17;;;7.70;;
75165;SDS011;63747;48.042;10.088;2022-12-05T18:17:27;6.15;;;4.70;;
75165;SDS011;63747;48.042;10.088;2022-12-05T18:20:29;4.77;;;4.23;;
75165;SDS011;63747;48.042;10.088;2022-12-05T18:23:30;7.88;;;5.28;;
75165;SDS011;63747;48.042;10.088;2022-12-05T18:26:30;6.70;;;5.13;;
75165;SDS011;63747;48.042;10.088;2022-12-05T18:29:31;5.60;;;4.60;;
75165;SDS011;63747;48.042;10.088;2022-12-05T18:32:32;7.20;;;5.57;;
75165;SDS011;63747;48.042;10.088;2022-12-05T18:35:33;6.78;;;5.28;;
75165;SDS011;63747;48.042;10.088;2022-12-05T18:38:39;5.60;;;4.35;;
75165;SDS011;63747;48.042;10.088;2022-12-05T18:41:43;5.35;;;4.57;;
75165;SDS011;63747;48.042;10.088;2022-12-05T18:47:44;6.97;;;5.45;;
75165;SDS011;63747;48.042;10.088;2022-12-05T18:50:45;7.13;;;5.60;;
75165;SDS011;63747;48.042;10.088;2022-12-05T18:53:46;8.67;;;5.57;;
75165;SDS011;63747;48.042;10.088;2022-12-05T18:56:51;7.43;;;6.18;;
75165;SDS011;63747;48.042;10.088;2022-12-05T18:59:52;8.38;;;7.47;;
75165;SDS011;63747;48.042;10.088;2022-12-05T19:02:53;10.13;;;8.53;;
75165;SDS011;63747;48.042;10.088;2022-12-05T19:05:54;8.50;;;7.03;;
75165;SDS011;63747;48.042;10.088;2022-12-05T19:08:55;7.87;;;7.07;;
75165;SDS011;63747;48.042;10.088;2022-12-05T19:11:57;9.23;;;8.07;;
75165;SDS011;63747;48.042;10.088;2022-12-05T19:14:59;10.50;;;9.18;;
75165;SDS011;63747;48.042;10.088;2022-12-05T19:18:00;7.50;;;6.70;;
75165;SDS011;63747;48.042;10.088;2022-12-05T19:21:01;6.80;;;5.83;;
75165;SDS011;63747;48.042;10.088;2022-12-05T19:24:03;16.17;;;12.20;;
75165;SDS011;63747;48.042;10.088;2022-12-05T19:27:06;16.38;;;11.38;;
75165;SDS011;63747;48.042;10.088;2022-12-05T19:30:07;56.23;;;33.93;;
75165;SDS011;63747;48.042;10.088;2022-12-05T19:33:08;27.35;;;18.15;;
75165;SDS011;63747;48.042;10.088;2022-12-05T19:36:10;18.13;;;12.37;;
75165;SDS011;63747;48.042;10.088;2022-12-05T19:39:18;17.40;;;12.73;;
75165;SDS011;63747;48.042;10.088;2022-12-05T19:42:21;30.95;;;19.77;;
75165;SDS011;63747;48.042;10.088;2022-12-05T19:45:22;52.53;;;31.17;;
75165;SDS011;63747;48.042;10.088;2022-12-05T19:48:23;14.35;;;10.90;;
75165;SDS011;63747;48.042;10.088;2022-12-05T19:51:24;15.17;;;11.27;;
75165;SDS011;63747;48.042;10.088;2022-12-05T19:54:25;41.97;;;25.33;;
75165;SDS011;63747;48.042;10.088;2022-12-05T19:57:26;101.50;;;53.07;;
75165;SDS011;63747;48.042;10.088;2022-12-05T20:00:27;15.40;;;13.50;;
75165;SDS011;63747;48.042;10.088;2022-12-05T20:03:28;17.83;;;13.37;;
75165;SDS011;63747;48.042;10.088;2022-12-05T20:06:32;14.07;;;12.53;;
75165;SDS011;63747;48.042;10.088;2022-12-05T20:09:35;12.93;;;11.07;;
75165;SDS011;63747;48.042;10.088;2022-12-05T20:12:37;12.55;;;10.88;;
75165;SDS011;63747;48.042;10.088;2022-12-05T20:15:38;12.10;;;10.20;;
75165;SDS011;63747;48.042;10.088;2022-12-05T20:18:39;10.80;;;9.60;;
75165;SDS011;63747;48.042;10.088;2022-12-05T20:21:40;11.35;;;10.25;;
75165;SDS011;63747;48.042;10.088;2022-12-05T20:24:42;12.15;;;10.95;;
75165;SDS011;63747;48.042;10.088;2022-12-05T20:27:42;10.87;;;9.83;;
75165;SDS011;63747;48.042;10.088;2022-12-05T20:33:45;12.80;;;11.60;;
75165;SDS011;63747;48.042;10.088;2022-12-05T20:36:48;13.23;;;11.75;;
75165;SDS011;63747;48.042;10.088;2022-12-05T20:39:48;11.30;;;9.77;;